Flight Track Log - Related Links

Times and Time Zones

All times are in EDT time to prevent confusion due to time zone crossing. See the EJA815 flight status page for this flight to view local times or setup timezone preferences in your user account.

Time Position Orientation Groundspeed Altitude Reporting Facility
EDT Latitude Longitude Course Direction KTS MPH feet Rate Location/Type
Wed 12:43:45 AM 40.8667 -74.0333 360° North 182 209 1,100  Level New York TRACON
Wed 12:44:39 AM 40.9167 -74.0333 255° West 208 239 2,700 2,105 Climbing New York TRACON
Wed 12:45:39 AM 40.9000 -74.1167 255° West 225 259 5,100 2,650 Climbing New York TRACON
Wed 12:46:39 AM 40.8833 -74.2000 251° West 260 299 8,000 2,671 Climbing New York TRACON
Wed 12:48:32 AM 40.8353 -74.3886 243° Southwest 294 338 12,800 2,477 Climbing New York Center
Wed 12:49:31 AM 40.7992 -74.4828 245° Southwest 316 364 15,100 2,100 Climbing New York Center
Wed 12:50:32 AM 40.7533 -74.6117 244° Southwest 340 391 17,000 1,866 Climbing New York Center
Wed 12:51:30 AM 40.7122 -74.7217 245° Southwest 368 423 18,800 2,000 Climbing New York Center
Wed 12:52:32 AM 40.6639 -74.8556 245° Southwest 374 430 21,000 1,574 Climbing New York Center
Wed 12:53:32 AM 40.6175 -74.9867 244° Southwest 379 436 22,000 500 Climbing New York Center
Wed 12:54:32 AM 40.5669 -75.1203 243° Southwest 403 464 22,000  Level New York Center
Wed 12:55:30 AM 40.5161 -75.2536 243° Southwest 409 471 22,000  Level New York Center
Wed 12:56:32 AM 40.4675 -75.3786 244° Southwest 423 487 22,000  Level New York Center
Wed 12:57:30 AM 40.4092 -75.5328 243° Southwest 428 493 22,000  Level New York Center
Wed 12:58:32 AM 40.3628 -75.6522 244° Southwest 428 493 22,000  Level New York Center
Wed 12:59:32 AM 40.3064 -75.8033 243° Southwest 423 487 22,000  Level New York Center
Wed 01:00:32 AM 40.2572 -75.9278 243° Southwest 423 487 22,000  Level New York Center
Wed 01:01:32 AM 40.2006 -76.0756 244° Southwest 418 481 22,000  Level New York Center
Wed 01:02:32 AM 40.1533 -76.1997 244° Southwest 418 481 22,000  Level New York Center
Wed 01:03:33 AM 40.1031 -76.3369 240° Southwest 425 489 22,000  Level New York Center
Wed 01:05:20 AM 40.0000 -76.5667 234° Southwest 423 487 22,000 -655 Level Potomac TRACON
Wed 01:06:27 AM 39.9167 -76.7167 244° Southwest 419 482 20,100 -1,937 Descending Potomac TRACON
Wed 01:07:27 AM 39.8667 -76.8500 233° Southwest 410 472 17,900 -2,150 Descending Potomac TRACON
Wed 01:08:27 AM 39.8000 -76.9667 241° Southwest 403 464 15,800 -1,983 Descending Potomac TRACON
Wed 01:09:28 AM 39.7500 -77.0833 241° Southwest 395 455 13,900 -1,835 Descending Potomac TRACON
Wed 01:10:28 AM 39.7000 -77.2000 232° Southwest 378 435 12,100 -1,600 Descending Potomac TRACON
Wed 01:11:28 AM 39.6500 -77.2833 218° Southwest 332 382 10,700 -1,250 Descending Potomac TRACON
Wed 01:12:28 AM 39.6000 -77.3333 189° South 278 320 9,600 -1,091 Descending Potomac TRACON
Wed 01:13:29 AM 39.5167 -77.3500 201° Southwest 262 302 8,500 -1,091 Descending Potomac TRACON
Wed 01:14:29 AM 39.4500 -77.3833 187° South 270 311 7,400 -1,350 Descending Potomac TRACON
Wed 01:15:29 AM 39.3500 -77.4000 191° South 286 329 5,800 -1,537 Descending Potomac TRACON
Wed 01:16:30 AM 39.2833 -77.4167 189° South 277 319 4,300 -1,339 Descending Potomac TRACON
Wed 01:17:30 AM 39.2000 -77.4333 180° South 264 304 3,100 -796 Descending Potomac TRACON
Wed 01:18:08 AM 39.1667 -77.4333 180° South 249 287 3,000 -61 Descending Potomac TRACON
Wed 01:19:08 AM 39.1000 -77.4333 180° South 230 265 3,000 -450 Level Potomac TRACON
Wed 01:20:08 AM 39.0500 -77.4333 180° South 211 243 2,100 -900 Descending Potomac TRACON
Wed 01:21:08 AM 39.0000 -77.4333 191° South 177 204 1,200 -900 Descending Potomac TRACON
Wed 01:28:32 AM 38.9333 -77.4500 331° Northwest  Level FlightAware Approximate
Wed 01:29:32 AM 39.0165 -77.5087 151° Southeast  Level Estimated
Wed 01:30:32 AM 38.9333 -77.4500 331° Northwest  Level FlightAware Approximate
Wed 01:31:32 AM 39.0165 -77.5087 331° Northwest  Level Estimated

Login

Don't have an account? Register now (free) for customized features, flight alerts, and more!